Portada
METAR-TAF:

METAR-TAF

Aeroports :

Saint-Pierre, Reunió

latitud: 21-20S, longitud: 055-29E, altitud: 52 m

Observació

L'informe es va fer fa 34 minuts, a les 12:30 UTC
Vent 6 kt del Oest
Temperatura 26°C
Humitat 65%
Pressió 1018 hPa
Visibilitat 10 km o més

METAR: FMEP 301230Z AUTO 27006KT 9999 NCD 26/19 Q1018 NOSIG

Hora: 17:04 (13:04 UTC)

Pronòstic

L'informe es va fer fa 2 hores i 4 minuts, a les 11:00 UTC
Pronòstic vàlid del 30 a les 12 UTC al 30 a les 21 UTC
Vent 7 kt del Oest
Visibilitat 10 km o més
Evolucionant progressivament
l' 30 a les 15 UTC al 30 a les 17 UTC
Vent 5 kt del Nord/Nord-Est

TAF: FMEP 301100Z 3012/3021 26007KT 9999 NSC BECMG 3015/3017 02005KT

Observacions i pronòstics meteorològics de més de 4000 aeroports (METAR i TAF).

Les estacions disponibles són els punts grocs i vermells al mapa.

Posi el ratolí al punt desitjat per veure el nom de l'estació.

Feu clic per veure les observacions i els pronòstics meteorològics.

Per canviar el mapa: feu clic els botons verds amb una creu de color negre per apropar; al botó verd amb un guió per allunyar la imatge; o en les fletxes verdes per a mapes adjacents.


METAR-TAF: